sensor_id;sensor_type;location;lat;lon;timestamp;temperature;humidity
38333;DHT22;25748;46.670;14.272;2022-12-29T00:01:53;1.20;70.90
38333;DHT22;25748;46.670;14.272;2022-12-29T00:04:19;1.20;71.00
38333;DHT22;25748;46.670;14.272;2022-12-29T00:06:45;1.20;71.00
38333;DHT22;25748;46.670;14.272;2022-12-29T00:09:11;1.20;71.00
38333;DHT22;25748;46.670;14.272;2022-12-29T00:11:38;1.20;70.90
38333;DHT22;25748;46.670;14.272;2022-12-29T00:14:04;1.20;71.00
38333;DHT22;25748;46.670;14.272;2022-12-29T00:16:49;1.10;70.90
38333;DHT22;25748;46.670;14.272;2022-12-29T00:19:14;1.10;70.90
38333;DHT22;25748;46.670;14.272;2022-12-29T00:21:58;1.10;70.90
38333;DHT22;25748;46.670;14.272;2022-12-29T00:24:46;1.10;71.00
38333;DHT22;25748;46.670;14.272;2022-12-29T00:27:27;1.10;71.00
38333;DHT22;25748;46.670;14.272;2022-12-29T00:30:13;1.10;71.00
38333;DHT22;25748;46.670;14.272;2022-12-29T00:32:58;1.10;71.10
38333;DHT22;25748;46.670;14.272;2022-12-29T00:35:51;1.10;71.10
38333;DHT22;25748;46.670;14.272;2022-12-29T00:38:18;1.10;71.20
38333;DHT22;25748;46.670;14.272;2022-12-29T00:41:03;1.10;71.20
38333;DHT22;25748;46.670;14.272;2022-12-29T00:43:47;1.00;71.10
38333;DHT22;25748;46.670;14.272;2022-12-29T00:46:34;1.00;70.80
38333;DHT22;25748;46.670;14.272;2022-12-29T00:49:01;0.90;71.20
38333;DHT22;25748;46.670;14.272;2022-12-29T00:51:46;0.90;71.40
38333;DHT22;25748;46.670;14.272;2022-12-29T00:54:12;0.90;71.40
38333;DHT22;25748;46.670;14.272;2022-12-29T00:56:38;0.90;71.60
38333;DHT22;25748;46.670;14.272;2022-12-29T00:59:06;0.90;71.70
38333;DHT22;25748;46.670;14.272;2022-12-29T01:01:32;0.80;71.50
38333;DHT22;25748;46.670;14.272;2022-12-29T01:03:58;0.90;71.80
38333;DHT22;25748;46.670;14.272;2022-12-29T01:06:23;0.80;71.80
38333;DHT22;25748;46.670;14.272;2022-12-29T01:08:50;0.90;72.00
38333;DHT22;25748;46.670;14.272;2022-12-29T01:11:35;0.80;71.70
38333;DHT22;25748;46.670;14.272;2022-12-29T01:14:01;0.80;72.00
38333;DHT22;25748;46.670;14.272;2022-12-29T01:16:27;0.90;72.10
38333;DHT22;25748;46.670;14.272;2022-12-29T01:18:52;0.90;72.20
38333;DHT22;25748;46.670;14.272;2022-12-29T01:21:18;0.80;71.90
38333;DHT22;25748;46.670;14.272;2022-12-29T01:23:44;0.90;72.20
38333;DHT22;25748;46.670;14.272;2022-12-29T01:26:12;0.80;72.20
38333;DHT22;25748;46.670;14.272;2022-12-29T01:28:38;0.90;72.30
38333;DHT22;25748;46.670;14.272;2022-12-29T01:31:07;0.80;72.20
38333;DHT22;25748;46.670;14.272;2022-12-29T01:33:33;0.80;72.20
38333;DHT22;25748;46.670;14.272;2022-12-29T01:36:04;0.80;72.10
38333;DHT22;25748;46.670;14.272;2022-12-29T01:38:31;0.80;72.10
38333;DHT22;25748;46.670;14.272;2022-12-29T01:40:57;0.80;72.10
38333;DHT22;25748;46.670;14.272;2022-12-29T01:43:45;0.80;72.10
38333;DHT22;25748;46.670;14.272;2022-12-29T01:49:15;0.80;72.00
38333;DHT22;25748;46.670;14.272;2022-12-29T01:51:52;0.80;71.90
38333;DHT22;25748;46.670;14.272;2022-12-29T01:57:01;0.80;71.90
38333;DHT22;25748;46.670;14.272;2022-12-29T01:59:36;0.70;71.80
38333;DHT22;25748;46.670;14.272;2022-12-29T02:02:05;0.70;72.00
38333;DHT22;25748;46.670;14.272;2022-12-29T02:04:32;0.70;72.00
38333;DHT22;25748;46.670;14.272;2022-12-29T02:07:02;0.70;72.00
38333;DHT22;25748;46.670;14.272;2022-12-29T02:09:30;0.70;72.10
38333;DHT22;25748;46.670;14.272;2022-12-29T02:11:56;0.70;72.10
38333;DHT22;25748;46.670;14.272;2022-12-29T02:14:23;0.70;72.20
38333;DHT22;25748;46.670;14.272;2022-12-29T02:17:23;0.70;72.10
38333;DHT22;25748;46.670;14.272;2022-12-29T02:23:20;0.70;72.20
38333;DHT22;25748;46.670;14.272;2022-12-29T02:25:57;0.70;72.20
38333;DHT22;25748;46.670;14.272;2022-12-29T02:28:47;0.70;71.80
38333;DHT22;25748;46.670;14.272;2022-12-29T02:31:51;0.70;72.20
38333;DHT22;25748;46.670;14.272;2022-12-29T02:37:18;0.70;72.30
38333;DHT22;25748;46.670;14.272;2022-12-29T02:42:46;0.70;72.10
38333;DHT22;25748;46.670;14.272;2022-12-29T02:45:30;0.70;72.00
38333;DHT22;25748;46.670;14.272;2022-12-29T02:48:17;0.60;72.00
38333;DHT22;25748;46.670;14.272;2022-12-29T02:50:53;0.60;72.00
38333;DHT22;25748;46.670;14.272;2022-12-29T02:53:22;0.60;71.40
38333;DHT22;25748;46.670;14.272;2022-12-29T02:56:09;0.60;71.70
38333;DHT22;25748;46.670;14.272;2022-12-29T02:58:34;0.50;71.60
38333;DHT22;25748;46.670;14.272;2022-12-29T03:07:07;0.50;71.60
38333;DHT22;25748;46.670;14.272;2022-12-29T03:09:47;0.50;71.60
38333;DHT22;25748;46.670;14.272;2022-12-29T03:12:30;0.40;71.10
38333;DHT22;25748;46.670;14.272;2022-12-29T03:15:34;0.40;71.60
38333;DHT22;25748;46.670;14.272;2022-12-29T03:18:24;0.40;71.50
38333;DHT22;25748;46.670;14.272;2022-12-29T03:20:54;0.40;71.60
38333;DHT22;25748;46.670;14.272;2022-12-29T03:23:22;0.40;71.80
38333;DHT22;25748;46.670;14.272;2022-12-29T03:25:52;0.40;71.60
38333;DHT22;25748;46.670;14.272;2022-12-29T03:28:32;0.40;71.60
38333;DHT22;25748;46.670;14.272;2022-12-29T03:31:00;0.40;71.80
38333;DHT22;25748;46.670;14.272;2022-12-29T03:33:28;0.40;71.80
38333;DHT22;25748;46.670;14.272;2022-12-29T03:35:58;0.40;71.70
38333;DHT22;25748;46.670;14.272;2022-12-29T03:38:45;0.40;71.80
38333;DHT22;25748;46.670;14.272;2022-12-29T03:41:15;0.40;71.70
38333;DHT22;25748;46.670;14.272;2022-12-29T03:43:41;0.40;71.60
38333;DHT22;25748;46.670;14.272;2022-12-29T03:46:07;0.40;71.60
38333;DHT22;25748;46.670;14.272;2022-12-29T03:48:33;0.40;71.60
38333;DHT22;25748;46.670;14.272;2022-12-29T03:50:58;0.40;71.50
38333;DHT22;25748;46.670;14.272;2022-12-29T03:53:24;0.40;71.50
38333;DHT22;25748;46.670;14.272;2022-12-29T03:55:50;0.40;71.50
38333;DHT22;25748;46.670;14.272;2022-12-29T03:58:16;0.30;71.20
38333;DHT22;25748;46.670;14.272;2022-12-29T04:00:41;0.30;71.20
38333;DHT22;25748;46.670;14.272;2022-12-29T04:03:07;0.30;71.30
38333;DHT22;25748;46.670;14.272;2022-12-29T04:05:32;0.30;71.10
38333;DHT22;25748;46.670;14.272;2022-12-29T04:07:58;0.30;71.30
38333;DHT22;25748;46.670;14.272;2022-12-29T04:10:24;0.30;71.30
38333;DHT22;25748;46.670;14.272;2022-12-29T04:12:49;0.20;71.40
38333;DHT22;25748;46.670;14.272;2022-12-29T04:15:15;0.30;71.50
38333;DHT22;25748;46.670;14.272;2022-12-29T04:17:41;0.20;71.30
38333;DHT22;25748;46.670;14.272;2022-12-29T04:20:07;0.20;71.20
38333;DHT22;25748;46.670;14.272;2022-12-29T04:23:00;0.20;71.60
38333;DHT22;25748;46.670;14.272;2022-12-29T04:25:26;0.20;71.50
38333;DHT22;25748;46.670;14.272;2022-12-29T04:27:52;0.20;71.50
38333;DHT22;25748;46.670;14.272;2022-12-29T04:30:18;0.20;71.70
38333;DHT22;25748;46.670;14.272;2022-12-29T04:32:43;0.20;71.80
38333;DHT22;25748;46.670;14.272;2022-12-29T04:35:09;0.20;71.80
38333;DHT22;25748;46.670;14.272;2022-12-29T04:37:35;0.20;71.70
38333;DHT22;25748;46.670;14.272;2022-12-29T04:40:00;0.30;71.90
38333;DHT22;25748;46.670;14.272;2022-12-29T04:42:26;0.30;71.90
38333;DHT22;25748;46.670;14.272;2022-12-29T04:44:52;0.30;71.80
38333;DHT22;25748;46.670;14.272;2022-12-29T04:47:17;0.30;71.80
38333;DHT22;25748;46.670;14.272;2022-12-29T04:49:43;0.30;71.80
38333;DHT22;25748;46.670;14.272;2022-12-29T04:52:09;0.30;71.70
38333;DHT22;25748;46.670;14.272;2022-12-29T04:54:34;0.30;71.70
38333;DHT22;25748;46.670;14.272;2022-12-29T04:57:00;0.30;71.60
38333;DHT22;25748;46.670;14.272;2022-12-29T04:59:26;0.30;71.40
38333;DHT22;25748;46.670;14.272;2022-12-29T05:01:51;0.30;71.10
38333;DHT22;25748;46.670;14.272;2022-12-29T05:04:17;0.30;71.10
38333;DHT22;25748;46.670;14.272;2022-12-29T05:06:43;0.30;71.00
38333;DHT22;25748;46.670;14.272;2022-12-29T05:09:09;0.30;70.90
38333;DHT22;25748;46.670;14.272;2022-12-29T05:11:34;0.30;70.80
38333;DHT22;25748;46.670;14.272;2022-12-29T05:14:00;0.30;70.80
38333;DHT22;25748;46.670;14.272;2022-12-29T05:16:26;0.30;70.70
38333;DHT22;25748;46.670;14.272;2022-12-29T05:18:51;0.30;70.50
38333;DHT22;25748;46.670;14.272;2022-12-29T05:21:17;0.30;70.40
38333;DHT22;25748;46.670;14.272;2022-12-29T05:23:43;0.30;70.30
38333;DHT22;25748;46.670;14.272;2022-12-29T05:26:08;0.30;70.20
38333;DHT22;25748;46.670;14.272;2022-12-29T05:28:34;0.20;70.00
38333;DHT22;25748;46.670;14.272;2022-12-29T05:30:59;0.30;70.00
38333;DHT22;25748;46.670;14.272;2022-12-29T05:33:25;0.30;70.00
38333;DHT22;25748;46.670;14.272;2022-12-29T05:35:51;0.20;69.80
38333;DHT22;25748;46.670;14.272;2022-12-29T05:38:16;0.20;69.60
38333;DHT22;25748;46.670;14.272;2022-12-29T05:40:43;0.20;69.50
38333;DHT22;25748;46.670;14.272;2022-12-29T05:43:08;0.20;69.40
38333;DHT22;25748;46.670;14.272;2022-12-29T05:45:35;0.20;69.30
38333;DHT22;25748;46.670;14.272;2022-12-29T05:48:01;0.10;69.30
38333;DHT22;25748;46.670;14.272;2022-12-29T05:50:27;0.10;69.20
38333;DHT22;25748;46.670;14.272;2022-12-29T05:52:53;0.10;69.20
38333;DHT22;25748;46.670;14.272;2022-12-29T05:55:18;0.10;69.40
38333;DHT22;25748;46.670;14.272;2022-12-29T05:57:44;0.10;69.60
38333;DHT22;25748;46.670;14.272;2022-12-29T06:00:10;0.10;69.50
38333;DHT22;25748;46.670;14.272;2022-12-29T06:02:36;0.10;69.60
38333;DHT22;25748;46.670;14.272;2022-12-29T06:05:02;0.00;69.60
38333;DHT22;25748;46.670;14.272;2022-12-29T06:07:28;0.00;69.70
38333;DHT22;25748;46.670;14.272;2022-12-29T06:09:53;0.00;69.30
38333;DHT22;25748;46.670;14.272;2022-12-29T06:12:19;0.00;69.80
38333;DHT22;25748;46.670;14.272;2022-12-29T06:14:45;0.00;69.90
38333;DHT22;25748;46.670;14.272;2022-12-29T06:17:10;-0.10;69.70
38333;DHT22;25748;46.670;14.272;2022-12-29T06:19:36;-0.10;69.70
38333;DHT22;25748;46.670;14.272;2022-12-29T06:22:02;-0.10;69.60
38333;DHT22;25748;46.670;14.272;2022-12-29T06:24:28;-0.10;69.70
38333;DHT22;25748;46.670;14.272;2022-12-29T06:26:54;-0.10;69.60
38333;DHT22;25748;46.670;14.272;2022-12-29T06:29:19;-0.10;69.60
38333;DHT22;25748;46.670;14.272;2022-12-29T06:31:46;-0.10;69.60
38333;DHT22;25748;46.670;14.272;2022-12-29T06:34:12;-0.10;69.60
38333;DHT22;25748;46.670;14.272;2022-12-29T06:36:38;-0.10;69.50
38333;DHT22;25748;46.670;14.272;2022-12-29T06:39:04;-0.10;69.50
38333;DHT22;25748;46.670;14.272;2022-12-29T06:41:30;-0.10;69.30
38333;DHT22;25748;46.670;14.272;2022-12-29T06:43:55;-0.20;69.10
38333;DHT22;25748;46.670;14.272;2022-12-29T06:46:21;-0.20;68.90
38333;DHT22;25748;46.670;14.272;2022-12-29T06:48:46;-0.30;68.40
38333;DHT22;25748;46.670;14.272;2022-12-29T06:51:12;-0.40;67.90
38333;DHT22;25748;46.670;14.272;2022-12-29T06:53:38;-0.40;68.20
38333;DHT22;25748;46.670;14.272;2022-12-29T06:56:04;-0.50;68.30
38333;DHT22;25748;46.670;14.272;2022-12-29T06:58:30;-0.50;68.40
38333;DHT22;25748;46.670;14.272;2022-12-29T07:00:55;-0.60;68.10
38333;DHT22;25748;46.670;14.272;2022-12-29T07:03:21;-0.60;68.40
38333;DHT22;25748;46.670;14.272;2022-12-29T07:05:47;-0.60;68.40
38333;DHT22;25748;46.670;14.272;2022-12-29T07:08:12;-0.60;68.40
38333;DHT22;25748;46.670;14.272;2022-12-29T07:10:38;-0.60;68.20
38333;DHT22;25748;46.670;14.272;2022-12-29T07:13:03;-0.60;68.30
38333;DHT22;25748;46.670;14.272;2022-12-29T07:15:29;-0.70;68.20
38333;DHT22;25748;46.670;14.272;2022-12-29T07:17:55;-0.70;68.10
38333;DHT22;25748;46.670;14.272;2022-12-29T07:20:20;-0.70;68.10
38333;DHT22;25748;46.670;14.272;2022-12-29T07:22:46;-0.70;68.10
38333;DHT22;25748;46.670;14.272;2022-12-29T07:25:12;-0.70;68.10
38333;DHT22;25748;46.670;14.272;2022-12-29T07:27:38;-0.70;68.20
38333;DHT22;25748;46.670;14.272;2022-12-29T07:30:04;-0.60;68.10
38333;DHT22;25748;46.670;14.272;2022-12-29T07:32:33;-0.60;68.00
38333;DHT22;25748;46.670;14.272;2022-12-29T07:34:59;-0.60;68.20
38333;DHT22;25748;46.670;14.272;2022-12-29T07:37:24;-0.60;68.30
38333;DHT22;25748;46.670;14.272;2022-12-29T07:39:50;-0.50;68.50
38333;DHT22;25748;46.670;14.272;2022-12-29T07:42:15;-0.50;68.50
38333;DHT22;25748;46.670;14.272;2022-12-29T07:44:41;-0.40;68.50
38333;DHT22;25748;46.670;14.272;2022-12-29T07:47:07;-0.40;68.50
38333;DHT22;25748;46.670;14.272;2022-12-29T07:49:32;-0.30;68.60
38333;DHT22;25748;46.670;14.272;2022-12-29T07:51:58;-0.30;68.70
38333;DHT22;25748;46.670;14.272;2022-12-29T07:54:24;-0.20;69.00
38333;DHT22;25748;46.670;14.272;2022-12-29T07:56:50;-0.10;69.40
38333;DHT22;25748;46.670;14.272;2022-12-29T07:59:16;0.00;69.10
38333;DHT22;25748;46.670;14.272;2022-12-29T08:01:41;0.10;69.20
38333;DHT22;25748;46.670;14.272;2022-12-29T08:04:07;0.20;69.20
38333;DHT22;25748;46.670;14.272;2022-12-29T08:06:33;0.30;69.00
38333;DHT22;25748;46.670;14.272;2022-12-29T08:09:01;0.40;68.90
38333;DHT22;25748;46.670;14.272;2022-12-29T08:11:27;0.50;68.80
38333;DHT22;25748;46.670;14.272;2022-12-29T08:13:53;0.50;68.60
38333;DHT22;25748;46.670;14.272;2022-12-29T08:16:18;0.60;68.70
38333;DHT22;25748;46.670;14.272;2022-12-29T08:18:44;0.70;68.40
38333;DHT22;25748;46.670;14.272;2022-12-29T08:21:10;0.80;68.30
38333;DHT22;25748;46.670;14.272;2022-12-29T08:23:36;0.90;68.40
38333;DHT22;25748;46.670;14.272;2022-12-29T08:26:04;0.90;68.40
38333;DHT22;25748;46.670;14.272;2022-12-29T08:28:30;1.00;68.10
38333;DHT22;25748;46.670;14.272;2022-12-29T08:31:01;1.10;67.90
38333;DHT22;25748;46.670;14.272;2022-12-29T08:33:27;1.10;67.50
38333;DHT22;25748;46.670;14.272;2022-12-29T08:36:00;1.20;67.40
38333;DHT22;25748;46.670;14.272;2022-12-29T08:38:27;1.30;67.10
38333;DHT22;25748;46.670;14.272;2022-12-29T08:40:53;1.30;66.30
38333;DHT22;25748;46.670;14.272;2022-12-29T08:43:19;1.30;66.60
38333;DHT22;25748;46.670;14.272;2022-12-29T08:45:45;1.40;66.70
38333;DHT22;25748;46.670;14.272;2022-12-29T08:48:10;1.40;66.50
38333;DHT22;25748;46.670;14.272;2022-12-29T08:50:36;1.40;66.20
38333;DHT22;25748;46.670;14.272;2022-12-29T08:53:02;1.50;66.10
38333;DHT22;25748;46.670;14.272;2022-12-29T08:55:27;1.50;65.70
38333;DHT22;25748;46.670;14.272;2022-12-29T08:57:53;1.50;65.20
38333;DHT22;25748;46.670;14.272;2022-12-29T09:00:18;1.50;65.10
38333;DHT22;25748;46.670;14.272;2022-12-29T09:02:46;1.40;64.70
38333;DHT22;25748;46.670;14.272;2022-12-29T09:05:11;1.40;64.80
38333;DHT22;25748;46.670;14.272;2022-12-29T09:07:37;1.50;65.00
38333;DHT22;25748;46.670;14.272;2022-12-29T09:10:04;1.50;64.90
38333;DHT22;25748;46.670;14.272;2022-12-29T09:12:30;1.50;64.90
38333;DHT22;25748;46.670;14.272;2022-12-29T09:14:56;1.50;64.70
38333;DHT22;25748;46.670;14.272;2022-12-29T09:17:21;1.50;64.50
38333;DHT22;25748;46.670;14.272;2022-12-29T09:20:06;1.50;64.50
38333;DHT22;25748;46.670;14.272;2022-12-29T09:22:32;1.60;64.10
38333;DHT22;25748;46.670;14.272;2022-12-29T09:24:57;1.60;64.10
38333;DHT22;25748;46.670;14.272;2022-12-29T09:27:23;1.60;64.20
38333;DHT22;25748;46.670;14.272;2022-12-29T09:29:49;1.60;64.30
38333;DHT22;25748;46.670;14.272;2022-12-29T09:32:14;1.60;64.00
38333;DHT22;25748;46.670;14.272;2022-12-29T09:34:40;1.60;64.30
38333;DHT22;25748;46.670;14.272;2022-12-29T09:37:05;1.60;64.40
38333;DHT22;25748;46.670;14.272;2022-12-29T09:39:31;1.60;64.60
38333;DHT22;25748;46.670;14.272;2022-12-29T09:42:02;1.70;64.70
38333;DHT22;25748;46.670;14.272;2022-12-29T09:45:05;1.60;64.20
38333;DHT22;25748;46.670;14.272;2022-12-29T09:47:29;1.60;63.90
38333;DHT22;25748;46.670;14.272;2022-12-29T09:52:40;1.60;64.00
38333;DHT22;25748;46.670;14.272;2022-12-29T09:55:15;1.50;63.80
38333;DHT22;25748;46.670;14.272;2022-12-29T09:57:47;1.50;63.90
38333;DHT22;25748;46.670;14.272;2022-12-29T10:00:19;1.40;63.80
38333;DHT22;25748;46.670;14.272;2022-12-29T10:02:49;1.50;64.40
38333;DHT22;25748;46.670;14.272;2022-12-29T10:05:38;1.40;64.20
38333;DHT22;25748;46.670;14.272;2022-12-29T10:08:22;1.40;64.50
38333;DHT22;25748;46.670;14.272;2022-12-29T10:10:56;1.40;64.60
38333;DHT22;25748;46.670;14.272;2022-12-29T10:15:55;1.40;65.10
38333;DHT22;25748;46.670;14.272;2022-12-29T10:21:40;1.40;65.20
38333;DHT22;25748;46.670;14.272;2022-12-29T10:24:12;1.40;64.60
38333;DHT22;25748;46.670;14.272;2022-12-29T10:26:41;1.30;64.50
38333;DHT22;25748;46.670;14.272;2022-12-29T10:29:23;1.40;65.20
38333;DHT22;25748;46.670;14.272;2022-12-29T10:34:31;1.40;65.30
38333;DHT22;25748;46.670;14.272;2022-12-29T10:37:38;1.40;65.20
38333;DHT22;25748;46.670;14.272;2022-12-29T10:40:24;1.40;65.20
38333;DHT22;25748;46.670;14.272;2022-12-29T10:42:54;1.40;65.50
38333;DHT22;25748;46.670;14.272;2022-12-29T10:45:22;1.50;66.00
38333;DHT22;25748;46.670;14.272;2022-12-29T10:48:02;1.60;66.40
38333;DHT22;25748;46.670;14.272;2022-12-29T10:50:29;1.80;66.80
38333;DHT22;25748;46.670;14.272;2022-12-29T10:52:59;1.80;66.60
38333;DHT22;25748;46.670;14.272;2022-12-29T10:55:35;1.90;66.40
38333;DHT22;25748;46.670;14.272;2022-12-29T10:58:04;2.00;66.40
38333;DHT22;25748;46.670;14.272;2022-12-29T11:00:31;2.10;65.90
38333;DHT22;25748;46.670;14.272;2022-12-29T11:05:37;2.30;65.80
38333;DHT22;25748;46.670;14.272;2022-12-29T11:08:17;2.40;66.40
38333;DHT22;25748;46.670;14.272;2022-12-29T11:10:44;2.50;66.30
38333;DHT22;25748;46.670;14.272;2022-12-29T11:13:19;2.50;65.90
38333;DHT22;25748;46.670;14.272;2022-12-29T11:15:51;2.60;65.30
38333;DHT22;25748;46.670;14.272;2022-12-29T11:20:48;2.70;64.50
38333;DHT22;25748;46.670;14.272;2022-12-29T11:28:41;2.70;64.10
38333;DHT22;25748;46.670;14.272;2022-12-29T11:31:09;2.80;64.70
38333;DHT22;25748;46.670;14.272;2022-12-29T11:33:36;2.90;64.20
38333;DHT22;25748;46.670;14.272;2022-12-29T11:36:21;3.00;64.80
38333;DHT22;25748;46.670;14.272;2022-12-29T11:38:54;3.10;64.80
38333;DHT22;25748;46.670;14.272;2022-12-29T11:41:26;3.20;64.20
38333;DHT22;25748;46.670;14.272;2022-12-29T11:43:55;3.20;64.10
38333;DHT22;25748;46.670;14.272;2022-12-29T11:46:28;3.30;64.20
38333;DHT22;25748;46.670;14.272;2022-12-29T11:48:56;3.40;64.30
38333;DHT22;25748;46.670;14.272;2022-12-29T11:51:34;3.50;64.70
38333;DHT22;25748;46.670;14.272;2022-12-29T11:54:03;3.50;64.30
38333;DHT22;25748;46.670;14.272;2022-12-29T11:56:38;3.60;64.70
38333;DHT22;25748;46.670;14.272;2022-12-29T12:01:52;3.90;64.50
38333;DHT22;25748;46.670;14.272;2022-12-29T12:04:22;4.10;64.50
38333;DHT22;25748;46.670;14.272;2022-12-29T12:09:42;4.30;62.80
38333;DHT22;25748;46.670;14.272;2022-12-29T12:12:21;4.40;62.60
38333;DHT22;25748;46.670;14.272;2022-12-29T12:14:54;4.50;61.80
38333;DHT22;25748;46.670;14.272;2022-12-29T12:20:03;4.40;61.00
38333;DHT22;25748;46.670;14.272;2022-12-29T12:22:37;4.40;60.90
38333;DHT22;25748;46.670;14.272;2022-12-29T12:30:40;4.40;61.50
38333;DHT22;25748;46.670;14.272;2022-12-29T12:33:36;4.50;61.30
38333;DHT22;25748;46.670;14.272;2022-12-29T12:41:08;4.80;62.10
38333;DHT22;25748;46.670;14.272;2022-12-29T12:43:39;4.90;62.10
38333;DHT22;25748;46.670;14.272;2022-12-29T12:52:22;5.10;60.60
38333;DHT22;25748;46.670;14.272;2022-12-29T12:57:52;5.30;61.50
38333;DHT22;25748;46.670;14.272;2022-12-29T13:00:22;5.40;60.40
38333;DHT22;25748;46.670;14.272;2022-12-29T13:03:12;5.50;60.50
38333;DHT22;25748;46.670;14.272;2022-12-29T13:06:02;5.50;60.90
38333;DHT22;25748;46.670;14.272;2022-12-29T13:08:52;5.60;59.90
38333;DHT22;25748;46.670;14.272;2022-12-29T13:22:23;5.60;60.00
38333;DHT22;25748;46.670;14.272;2022-12-29T13:31:00;5.70;59.60
38333;DHT22;25748;46.670;14.272;2022-12-29T13:36:29;5.70;59.40
38333;DHT22;25748;46.670;14.272;2022-12-29T13:39:23;5.70;59.20
38333;DHT22;25748;46.670;14.272;2022-12-29T13:41:53;5.70;59.50
38333;DHT22;25748;46.670;14.272;2022-12-29T13:44:33;5.80;59.40
38333;DHT22;25748;46.670;14.272;2022-12-29T13:47:05;5.80;59.20
38333;DHT22;25748;46.670;14.272;2022-12-29T13:49:32;5.80;59.10
38333;DHT22;25748;46.670;14.272;2022-12-29T13:55:07;5.80;58.90
38333;DHT22;25748;46.670;14.272;2022-12-29T13:57:48;5.80;58.80
38333;DHT22;25748;46.670;14.272;2022-12-29T14:00:20;5.80;59.00
38333;DHT22;25748;46.670;14.272;2022-12-29T14:08:13;5.90;58.50
38333;DHT22;25748;46.670;14.272;2022-12-29T14:10:45;5.90;58.30
38333;DHT22;25748;46.670;14.272;2022-12-29T14:13:16;5.80;57.90
38333;DHT22;25748;46.670;14.272;2022-12-29T14:15:55;5.70;57.80
38333;DHT22;25748;46.670;14.272;2022-12-29T14:18:26;5.60;57.60
38333;DHT22;25748;46.670;14.272;2022-12-29T14:36:36;5.00;58.30
38333;DHT22;25748;46.670;14.272;2022-12-29T14:39:04;4.90;58.00
38333;DHT22;25748;46.670;14.272;2022-12-29T14:41:44;4.70;58.10
38333;DHT22;25748;46.670;14.272;2022-12-29T14:44:20;4.70;58.00
38333;DHT22;25748;46.670;14.272;2022-12-29T14:47:04;4.50;58.30
38333;DHT22;25748;46.670;14.272;2022-12-29T14:49:39;4.50;58.50
38333;DHT22;25748;46.670;14.272;2022-12-29T14:52:19;4.40;58.50
38333;DHT22;25748;46.670;14.272;2022-12-29T14:54:48;4.20;58.30
38333;DHT22;25748;46.670;14.272;2022-12-29T14:57:27;4.10;58.40
38333;DHT22;25748;46.670;14.272;2022-12-29T14:59:58;4.00;58.70
38333;DHT22;25748;46.670;14.272;2022-12-29T15:02:26;3.80;58.70
38333;DHT22;25748;46.670;14.272;2022-12-29T15:04:58;3.70;59.00
38333;DHT22;25748;46.670;14.272;2022-12-29T15:07:27;3.60;59.20
38333;DHT22;25748;46.670;14.272;2022-12-29T15:09:59;3.40;59.30
38333;DHT22;25748;46.670;14.272;2022-12-29T15:12:43;3.30;59.70
38333;DHT22;25748;46.670;14.272;2022-12-29T15:15:22;3.20;59.90
38333;DHT22;25748;46.670;14.272;2022-12-29T15:17:49;3.20;60.20
38333;DHT22;25748;46.670;14.272;2022-12-29T15:22:54;3.00;60.50
38333;DHT22;25748;46.670;14.272;2022-12-29T15:25:20;2.90;60.90
38333;DHT22;25748;46.670;14.272;2022-12-29T15:27:59;2.80;61.20
38333;DHT22;25748;46.670;14.272;2022-12-29T15:30:26;2.70;61.30
38333;DHT22;25748;46.670;14.272;2022-12-29T15:32:51;2.70;61.70
38333;DHT22;25748;46.670;14.272;2022-12-29T15:35:31;2.60;61.90
38333;DHT22;25748;46.670;14.272;2022-12-29T15:37:58;2.60;62.40
38333;DHT22;25748;46.670;14.272;2022-12-29T15:40:25;2.50;62.50
38333;DHT22;25748;46.670;14.272;2022-12-29T15:45:46;2.40;63.10
38333;DHT22;25748;46.670;14.272;2022-12-29T15:48:18;2.30;63.30
38333;DHT22;25748;46.670;14.272;2022-12-29T15:50:45;2.30;63.60
38333;DHT22;25748;46.670;14.272;2022-12-29T15:53:18;2.20;64.00
38333;DHT22;25748;46.670;14.272;2022-12-29T15:55:45;2.20;64.20
38333;DHT22;25748;46.670;14.272;2022-12-29T15:58:27;2.10;64.50
38333;DHT22;25748;46.670;14.272;2022-12-29T16:00:59;2.10;64.80
38333;DHT22;25748;46.670;14.272;2022-12-29T16:03:27;2.10;64.90
38333;DHT22;25748;46.670;14.272;2022-12-29T16:08:59;2.00;65.00
38333;DHT22;25748;46.670;14.272;2022-12-29T16:11:47;2.00;65.50
38333;DHT22;25748;46.670;14.272;2022-12-29T16:14:19;2.00;65.60
38333;DHT22;25748;46.670;14.272;2022-12-29T16:16:47;1.90;65.80
38333;DHT22;25748;46.670;14.272;2022-12-29T16:19:35;1.90;65.90
38333;DHT22;25748;46.670;14.272;2022-12-29T16:22:03;1.90;66.00
38333;DHT22;25748;46.670;14.272;2022-12-29T16:24:38;1.80;65.80
38333;DHT22;25748;46.670;14.272;2022-12-29T16:29:30;1.80;66.10
38333;DHT22;25748;46.670;14.272;2022-12-29T16:31:59;1.80;66.30
38333;DHT22;25748;46.670;14.272;2022-12-29T16:34:33;1.70;66.30
38333;DHT22;25748;46.670;14.272;2022-12-29T16:37:04;1.70;66.60
38333;DHT22;25748;46.670;14.272;2022-12-29T16:39:33;1.80;66.80
38333;DHT22;25748;46.670;14.272;2022-12-29T16:41:59;1.80;66.90
38333;DHT22;25748;46.670;14.272;2022-12-29T16:44:27;1.70;67.00
38333;DHT22;25748;46.670;14.272;2022-12-29T16:49:37;1.70;67.20
38333;DHT22;25748;46.670;14.272;2022-12-29T16:52:17;1.70;67.20
38333;DHT22;25748;46.670;14.272;2022-12-29T16:54:52;1.70;67.50
38333;DHT22;25748;46.670;14.272;2022-12-29T16:57:24;1.70;67.60
38333;DHT22;25748;46.670;14.272;2022-12-29T16:59:52;1.70;67.80
38333;DHT22;25748;46.670;14.272;2022-12-29T17:02:20;1.70;67.90
38333;DHT22;25748;46.670;14.272;2022-12-29T17:04:46;1.70;67.80
38333;DHT22;25748;46.670;14.272;2022-12-29T17:07:20;1.60;68.10
38333;DHT22;25748;46.670;14.272;2022-12-29T17:09:46;1.60;68.20
38333;DHT22;25748;46.670;14.272;2022-12-29T17:12:17;1.60;68.30
38333;DHT22;25748;46.670;14.272;2022-12-29T17:14:48;1.60;68.40
38333;DHT22;25748;46.670;14.272;2022-12-29T17:20:26;1.60;68.40
38333;DHT22;25748;46.670;14.272;2022-12-29T17:22:51;1.60;68.30
38333;DHT22;25748;46.670;14.272;2022-12-29T17:25:32;1.60;68.30
38333;DHT22;25748;46.670;14.272;2022-12-29T17:28:07;1.50;68.10
38333;DHT22;25748;46.670;14.272;2022-12-29T17:30:36;1.50;68.10
38333;DHT22;25748;46.670;14.272;2022-12-29T17:33:13;1.40;67.90
38333;DHT22;25748;46.670;14.272;2022-12-29T17:35:40;1.40;68.00
38333;DHT22;25748;46.670;14.272;2022-12-29T17:38:28;1.40;68.20
38333;DHT22;25748;46.670;14.272;2022-12-29T17:40:54;1.30;68.20
38333;DHT22;25748;46.670;14.272;2022-12-29T17:43:20;1.30;68.30
38333;DHT22;25748;46.670;14.272;2022-12-29T17:45:55;1.30;68.40
38333;DHT22;25748;46.670;14.272;2022-12-29T17:48:23;1.20;68.40
38333;DHT22;25748;46.670;14.272;2022-12-29T17:50:51;1.20;68.50
38333;DHT22;25748;46.670;14.272;2022-12-29T17:53:28;1.20;68.60
38333;DHT22;25748;46.670;14.272;2022-12-29T17:55:54;1.20;68.70
38333;DHT22;25748;46.670;14.272;2022-12-29T18:00:53;1.10;68.80
38333;DHT22;25748;46.670;14.272;2022-12-29T18:03:32;1.10;69.00
38333;DHT22;25748;46.670;14.272;2022-12-29T18:05:58;1.10;69.20